Terminal Aerodrome Forecast
Issued by NWS Glasgow, MT

Home | Current Version | Previous Version | Text Only | Print | Product List | Glossary On
Versions: 1 2 3 4 5 6 7 8 9 10 11 12 13 14 15
000
FTUS45 KGGW 251140
TAFGGW
TAF
KGGW 251140Z 2512/2612 31004KT P6SM BKN040
     FM251600 22005KT 4SM -SN SCT007 OVC035
     FM252100 28012G21KT P6SM SCT012 OVC045
     FM252200 29012KT P6SM SCT010 BKN025
     FM260500 11005KT P6SM BKN050=

USA.gov is the U.S. government's official web portal to all federal, state and local government web resources and services.